Time;durP1;ratioP1;P1;durP2;ratioP2;P2;SDS_P1;SDS_P2;PMS_P1;PMS_P2;Temp;Humidity;BMP_temperature;BMP_pressure;BME280_temperature;BME280_humidity;BME280_pressure;Samples;Min_cycle;Max_cycle;Signal;HPM_P1;HPM_P2
2022/04/14 00:01:40;;;;;;;3.23;2.30;;;;;;;9.02;60.40;94812.56;5034861;28;20198;-64
2022/04/14 00:04:05;;;;;;;3.57;2.50;;;;;;;8.86;60.26;94815.44;5035960;28;20190;-64
2022/04/14 00:06:31;;;;;;;2.83;2.10;;;;;;;8.93;59.98;94819.13;5034423;28;20206;-62
2022/04/14 00:08:56;;;;;;;2.70;2.20;;;;;;;8.70;58.22;94844.59;5035954;28;20196;-63
2022/04/14 00:11:22;;;;;;;3.43;2.40;;;;;;;8.26;59.69;94830.91;5035577;28;20202;-63
2022/04/14 00:13:47;;;;;;;2.50;2.23;;;;;;;8.31;59.71;94828.88;5035909;28;20698;-63
2022/04/14 00:16:13;;;;;;;5.47;2.20;;;;;;;8.03;60.39;94820.81;5035564;28;20206;-61
2022/04/14 00:18:40;;;;;;;4.63;2.33;;;;;;;7.89;60.47;94819.28;5035827;28;20273;-61
2022/04/14 00:21:05;;;;;;;5.43;2.20;;;;;;;7.75;60.92;94811.06;5035796;28;20203;-60
2022/04/14 00:23:30;;;;;;;3.40;2.30;;;;;;;7.56;62.00;94799.72;5035497;28;20232;-62
2022/04/14 00:25:56;;;;;;;4.60;2.63;;;;;;;7.56;63.42;94798.91;5036049;28;20216;-63
2022/04/14 00:28:21;;;;;;;3.73;2.37;;;;;;;7.59;63.35;94801.22;5034315;28;20296;-62
2022/04/14 00:30:47;;;;;;;3.10;2.17;;;;;;;7.78;62.53;94821.75;5034068;28;20766;-62
2022/04/14 00:33:12;;;;;;;6.80;3.07;;;;;;;7.84;62.03;94821.31;5035247;28;20292;-66
2022/04/14 00:35:38;;;;;;;4.10;2.63;;;;;;;7.71;62.26;94815.53;5035457;28;20214;-61
2022/04/14 00:38:03;;;;;;;6.23;3.07;;;;;;;7.91;61.85;94830.09;5035433;28;20170;-60
2022/04/14 00:40:29;;;;;;;4.20;2.80;;;;;;;7.84;61.89;94823.84;5035505;28;20206;-62
2022/04/14 00:42:54;;;;;;;4.07;2.73;;;;;;;7.85;62.21;94822.13;5034818;28;20181;-61
2022/04/14 00:45:20;;;;;;;4.00;2.90;;;;;;;7.75;62.33;94818.66;5035127;28;20275;-62
2022/04/14 00:47:45;;;;;;;4.03;2.80;;;;;;;7.68;62.23;94833.44;5017067;28;20202;-64
2022/04/14 00:50:13;;;;;;;3.00;2.33;;;;;;;7.82;61.91;94828.22;5035487;28;20182;-62
2022/04/14 00:52:44;;;;;;;6.67;2.80;;;;;;;7.84;61.57;94836.50;5034818;28;20170;-63
2022/04/14 00:55:09;;;;;;;6.00;3.30;;;;;;;7.95;61.21;94834.03;5035456;28;20557;-64
2022/04/14 00:57:35;;;;;;;3.57;2.50;;;;;;;8.07;61.69;94832.34;5035359;28;20194;-62
2022/04/14 01:00:00;;;;;;;5.13;2.77;;;;;;;8.36;61.15;94844.53;5034693;28;20289;-62
2022/04/14 01:02:26;;;;;;;2.80;2.30;;;;;;;8.45;60.66;94854.00;5034207;28;20185;-63
2022/04/14 01:04:59;;;;;;;4.20;2.67;;;;;;;8.52;57.64;94886.47;5035132;28;20182;-64
2022/04/14 01:07:25;;;;;;;5.03;2.60;;;;;;;8.66;56.81;94873.59;5034649;28;20222;-63
2022/04/14 01:09:52;;;;;;;2.93;1.93;;;;;;;8.67;57.33;94867.59;5033552;28;20249;-63
2022/04/14 01:12:18;;;;;;;5.13;2.47;;;;;;;8.62;57.44;94872.22;5034592;28;20214;-62
2022/04/14 01:14:44;;;;;;;4.97;2.13;;;;;;;8.82;56.54;94892.66;5034957;28;20698;-62
2022/04/14 01:17:10;;;;;;;5.13;2.30;;;;;;;8.71;57.11;94890.06;5034403;28;20234;-62
2022/04/14 01:19:36;;;;;;;4.80;2.50;;;;;;;8.93;55.18;94917.19;5034842;28;20232;-61
2022/04/14 01:22:09;;;;;;;7.07;2.73;;;;;;;8.57;56.44;94897.06;5034423;28;20202;-62
2022/04/14 01:24:35;;;;;;;4.73;3.00;;;;;;;8.68;54.22;94923.25;5034233;28;20265;-62
2022/04/14 01:27:01;;;;;;;4.53;2.33;;;;;;;8.56;54.54;94920.81;5034765;28;20297;-63
2022/04/14 01:29:28;;;;;;;4.43;2.33;;;;;;;8.30;55.82;94900.69;5034513;28;20225;-61
2022/04/14 01:31:57;;;;;;;4.83;2.10;;;;;;;8.35;55.41;94906.25;5034235;28;20194;-61
2022/04/14 01:34:23;;;;;;;3.50;2.23;;;;;;;7.97;57.08;94880.28;5032608;28;20648;-61
2022/04/14 01:36:48;;;;;;;4.90;2.73;;;;;;;7.89;58.17;94869.91;5034028;28;20209;-62
2022/04/14 01:39:14;;;;;;;3.87;2.77;;;;;;;7.72;59.33;94857.63;5034171;28;20178;-63
2022/04/14 01:41:41;;;;;;;2.97;2.33;;;;;;;7.56;60.18;94852.00;5034310;28;20265;-62
2022/04/14 01:44:08;;;;;;;4.87;2.53;;;;;;;7.33;61.25;94838.44;5032675;28;20194;-63
2022/04/14 01:46:34;;;;;;;3.43;2.50;;;;;;;7.35;61.51;94839.13;5034424;28;20202;-62
2022/04/14 01:48:59;;;;;;;4.33;2.57;;;;;;;7.29;62.40;94831.97;5034655;28;20185;-62
2022/04/14 01:51:28;;;;;;;6.17;3.00;;;;;;;7.33;62.18;94830.84;5034247;28;20676;-62
2022/04/14 01:53:54;;;;;;;3.80;2.80;;;;;;;7.25;61.93;94837.38;5033658;28;20182;-62
2022/04/14 01:56:21;;;;;;;6.97;2.77;;;;;;;7.33;62.22;94832.59;5033802;28;20202;-63
2022/04/14 01:58:50;;;;;;;3.27;2.43;;;;;;;7.28;62.70;94840.47;5034320;28;20186;-62
2022/04/14 02:01:16;;;;;;;8.30;3.00;;;;;;;7.32;61.91;94854.53;5033530;28;20289;-61
2022/04/14 02:03:41;;;;;;;4.60;3.17;;;;;;;7.07;62.69;94844.47;5033617;28;20189;-63
2022/04/14 02:06:07;;;;;;;2.73;2.17;;;;;;;7.09;63.47;94841.84;5032956;28;20206;-62
2022/04/14 02:08:33;;;;;;;4.20;2.37;;;;;;;7.05;63.39;94837.91;5033715;28;20235;-62
2022/04/14 02:10:58;;;;;;;3.43;2.33;;;;;;;7.03;63.50;94840.53;5033754;28;20613;-64
2022/04/14 02:13:23;;;;;;;4.67;2.80;;;;;;;7.12;64.14;94841.63;5032402;28;20189;-62
2022/04/14 02:15:49;;;;;;;6.37;3.27;;;;;;;7.28;63.23;94847.25;5033742;28;20214;-61
2022/04/14 02:18:15;;;;;;;6.03;2.63;;;;;;;7.22;63.31;94850.19;5033473;28;20179;-62
2022/04/14 02:20:40;;;;;;;2.90;2.50;;;;;;;7.24;63.50;94839.06;5033499;28;20246;-62
2022/04/14 02:23:05;;;;;;;4.27;2.90;;;;;;;7.23;63.21;94844.25;5033169;28;20180;-62
2022/04/14 02:25:31;;;;;;;5.97;2.90;;;;;;;7.33;64.08;94830.84;5033524;28;20241;-61
2022/04/14 02:27:56;;;;;;;3.20;2.87;;;;;;;7.31;63.42;94839.47;5032977;28;20202;-62
2022/04/14 02:30:22;;;;;;;3.93;2.43;;;;;;;7.27;64.13;94836.31;5033375;28;20218;-63
2022/04/14 02:32:47;;;;;;;4.97;2.30;;;;;;;7.27;64.04;94825.44;5031870;28;20686;-62
2022/04/14 02:35:14;;;;;;;3.70;3.10;;;;;;;7.23;64.01;94831.59;5033444;28;20244;-63
2022/04/14 02:37:40;;;;;;;5.30;3.30;;;;;;;7.39;64.40;94837.22;5031924;28;20190;-62
2022/04/14 02:40:06;;;;;;;4.43;3.00;;;;;;;7.30;65.04;94830.25;5033174;28;20237;-62
2022/04/14 02:42:31;;;;;;;2.83;2.20;;;;;;;7.35;64.21;94828.22;5031545;28;20186;-61
2022/04/14 02:44:57;;;;;;;4.93;2.73;;;;;;;7.44;65.01;94830.91;5033052;28;20248;-62
2022/04/14 02:47:22;;;;;;;4.40;2.60;;;;;;;7.44;64.89;94835.97;5032498;28;20210;-61
2022/04/14 02:49:48;;;;;;;5.80;2.60;;;;;;;7.51;63.58;94851.53;5032873;28;20563;-62
2022/04/14 02:52:13;;;;;;;4.30;2.60;;;;;;;7.47;63.72;94842.56;5034563;28;20202;-63
2022/04/14 02:54:40;;;;;;;5.50;3.10;;;;;;;7.41;63.03;94853.88;5031427;28;20668;-63
2022/04/14 02:57:09;;;;;;;5.87;2.77;;;;;;;7.37;63.02;94846.63;5032287;28;20198;-63
2022/04/14 02:59:35;;;;;;;4.77;2.43;;;;;;;7.16;65.05;94838.78;5030586;28;20236;-63
2022/04/14 03:02:01;;;;;;;6.20;2.80;;;;;;;6.94;66.17;94830.25;5028918;28;20206;-63
2022/04/14 03:04:29;;;;;;;4.63;3.17;;;;;;;6.70;67.79;94817.56;5031970;28;20174;-63
2022/04/14 03:06:55;;;;;;;5.40;2.50;;;;;;;6.88;67.28;94850.88;5032361;28;20214;-63
2022/04/14 03:09:20;;;;;;;6.53;3.13;;;;;;;6.51;68.88;94837.34;5032449;28;20178;-61
2022/04/14 03:11:45;;;;;;;4.03;2.90;;;;;;;6.32;69.60;94850.38;5039320;23;20271;-63
2022/04/14 03:14:11;;;;;;;4.13;3.17;;;;;;;6.17;70.84;94856.41;5032177;28;20181;-62
2022/04/14 03:16:36;;;;;;;5.10;3.00;;;;;;;6.11;71.14;94864.38;5032526;28;20210;-66
2022/04/14 03:19:02;;;;;;;6.63;2.50;;;;;;;6.23;70.74;94873.69;5032229;28;20297;-63
2022/04/14 03:21:27;;;;;;;3.97;3.10;;;;;;;6.27;70.35;94870.06;5048121;28;20296;-63
2022/04/14 03:23:53;;;;;;;3.57;2.80;;;;;;;6.32;70.72;94879.88;5032024;28;20209;-61
2022/04/14 03:26:18;;;;;;;5.37;2.50;;;;;;;6.55;69.76;94885.03;5031076;28;20208;-64
2022/04/14 03:28:43;;;;;;;4.63;2.50;;;;;;;6.68;69.46;94885.88;5031754;28;20239;-61
2022/04/14 03:31:10;;;;;;;5.93;2.70;;;;;;;6.78;68.68;94896.16;5030636;28;20206;-64
2022/04/14 03:33:36;;;;;;;5.43;2.70;;;;;;;6.94;68.38;94904.34;5029868;28;20174;-63
2022/04/14 03:36:01;;;;;;;6.13;2.73;;;;;;;7.09;67.82;94902.50;5031827;28;20210;-62
2022/04/14 03:38:27;;;;;;;7.13;3.20;;;;;;;7.13;68.17;94899.66;5030618;28;20652;-62
2022/04/14 03:40:52;;;;;;;4.53;3.00;;;;;;;7.19;68.03;94898.47;5032147;28;20241;-61
2022/04/14 03:43:18;;;;;;;3.57;2.67;;;;;;;7.23;67.31;94907.44;5032066;28;20178;-63
2022/04/14 03:45:43;;;;;;;4.63;3.07;;;;;;;7.43;67.17;94909.44;5031942;28;20213;-63
2022/04/14 03:48:09;;;;;;;4.83;2.73;;;;;;;7.24;66.58;94926.75;5031690;28;20593;-63
2022/04/14 03:50:35;;;;;;;6.47;3.00;;;;;;;7.36;66.31;94930.97;5030970;28;20229;-64
2022/04/14 03:53:01;;;;;;;5.53;2.50;;;;;;;7.71;64.62;94959.75;5029180;28;20174;-62
2022/04/14 03:55:26;;;;;;;8.27;4.83;;;;;;;7.50;66.09;94940.97;5029516;28;20293;-62
2022/04/14 03:57:51;;;;;;;4.67;2.97;;;;;;;7.48;65.56;94940.25;5030840;28;20175;-62
2022/04/14 04:00:17;;;;;;;4.77;3.30;;;;;;;7.78;63.51;94972.78;5030508;28;20187;-63
2022/04/14 04:02:42;;;;;;;5.67;3.10;;;;;;;7.57;65.26;94944.72;5031980;28;20181;-63
2022/04/14 04:05:08;;;;;;;4.97;2.67;;;;;;;7.49;66.00;94936.84;5030302;28;20198;-63
2022/04/14 04:07:34;;;;;;;7.20;3.97;;;;;;;7.30;66.88;94921.28;5030609;28;20202;-63
2022/04/14 04:09:59;;;;;;;10.40;6.67;;;;;;;7.29;67.55;94912.88;5030436;28;20188;-64
2022/04/14 04:12:25;;;;;;;20.33;8.83;;;;;;;6.85;65.97;94929.41;5032444;28;20270;-63
2022/04/14 04:14:50;;;;;;;16.13;8.57;;;;;;;6.92;66.75;94912.94;5031706;28;20204;-62
2022/04/14 04:17:16;;;;;;;14.40;7.03;;;;;;;6.91;67.36;94921.44;5031404;28;20210;-61
2022/04/14 04:19:43;;;;;;;15.70;6.63;;;;;;;7.17;66.96;94921.28;5030105;28;20225;-64
2022/04/14 04:22:09;;;;;;;13.07;6.30;;;;;;;7.33;65.92;94938.78;5031601;28;20233;-63
2022/04/14 04:24:34;;;;;;;8.93;4.43;;;;;;;7.27;65.99;94917.22;5029696;28;20255;-63
2022/04/14 04:27:00;;;;;;;7.07;3.93;;;;;;;7.45;64.92;94950.59;5031555;28;20214;-63
2022/04/14 04:29:33;;;;;;;8.20;5.10;;;;;;;7.48;65.78;94947.84;5030597;28;20190;-63
2022/04/14 04:31:59;;;;;;;9.67;6.07;;;;;;;7.69;64.76;94966.63;5029093;28;20684;-65
2022/04/14 04:34:24;;;;;;;15.07;8.40;;;;;;;7.55;65.43;94959.19;5027830;28;20592;-62
2022/04/14 04:36:50;;;;;;;13.80;7.60;;;;;;;7.47;65.52;94964.75;5033706;28;20206;-61
2022/04/14 04:39:16;;;;;;;11.80;6.37;;;;;;;7.54;64.67;94970.19;5035160;28;20678;-63
2022/04/14 04:41:42;;;;;;;11.67;6.10;;;;;;;7.72;64.54;94979.06;5035378;28;20199;-63
2022/04/14 04:44:09;;;;;;;13.20;6.97;;;;;;;7.80;64.76;94986.16;5035005;28;20644;-62
2022/04/14 04:46:35;;;;;;;12.83;6.23;;;;;;;7.55;64.65;94979.41;5035458;28;20197;-63
2022/04/14 04:49:00;;;;;;;8.93;6.10;;;;;;;7.82;64.30;94999.50;5017254;28;20734;-64
2022/04/14 04:51:26;;;;;;;18.13;6.70;;;;;;;7.85;65.74;94982.38;5033784;28;20205;-62
2022/04/14 04:53:52;;;;;;;15.43;6.00;;;;;;;7.61;64.95;94989.13;5034828;28;20182;-62
2022/04/14 04:56:20;;;;;;;13.50;5.60;;;;;;;7.58;65.83;94984.25;5035206;28;20207;-63
2022/04/14 04:58:46;;;;;;;8.67;5.10;;;;;;;7.84;72.01;94892.19;5034778;28;20672;-62
2022/04/14 05:01:12;;;;;;;10.53;5.00;;;;;;;8.80;100.00;94957.03;5035852;28;20210;-66
2022/04/14 05:03:37;;;;;;;11.27;6.00;;;;;;;9.63;100.00;94966.81;5035370;28;20182;-65
2022/04/14 05:06:03;;;;;;;17.07;5.87;;;;;;;9.44;82.13;95181.44;5017663;28;20364;-67
2022/04/14 05:08:28;;;;;;;10.23;5.90;;;;;;;8.47;73.52;95228.81;5033231;28;20217;-66
2022/04/14 05:10:54;;;;;;;13.10;5.70;;;;;;;8.20;73.70;95203.56;5046715;23;20715;-64
2022/04/14 05:13:19;;;;;;;22.50;7.07;;;;;;;7.89;75.14;95152.56;5063211;22;20234;-62
2022/04/14 05:15:45;;;;;;;9.10;5.90;;;;;;;7.58;75.02;95141.09;5058460;22;20690;-67
2022/04/14 05:18:10;;;;;;;17.03;6.80;;;;;;;9.77;100.00;94968.28;5034349;28;20261;-66
2022/04/14 05:20:36;;;;;;;9.27;5.50;;;;;;;9.93;90.97;95223.47;5067229;23;20356;-65
2022/04/14 05:23:02;;;;;;;11.67;5.77;;;;;;;9.58;82.32;95258.19;5033706;28;20596;-64
2022/04/14 05:25:28;;;;;;;9.97;6.23;;;;;;;9.08;79.55;95251.63;5033310;28;20250;-64
2022/04/14 05:27:54;;;;;;;12.80;5.60;;;;;;;9.15;78.88;95168.31;5032851;28;20241;-63
2022/04/14 05:30:20;;;;;;;13.07;5.53;;;;;;;9.04;74.85;95213.88;5032632;28;20186;-62
2022/04/14 05:32:45;;;;;;;8.23;4.97;;;;;;;9.15;76.89;95178.44;5033886;28;20192;-63
2022/04/14 05:35:11;;;;;;;11.10;5.27;;;;;;;8.98;74.55;95202.44;5032611;28;20204;-63
2022/04/14 05:37:36;;;;;;;17.23;6.13;;;;;;;8.81;76.67;95148.75;5034040;28;20182;-65
2022/04/14 05:40:06;;;;;;;14.23;6.53;;;;;;;8.49;77.84;95118.03;5034189;28;20186;-65
2022/04/14 05:42:31;;;;;;;17.23;7.70;;;;;;;8.48;78.61;95110.56;5048747;23;20230;-63
2022/04/14 05:44:59;;;;;;;13.57;8.63;;;;;;;8.16;78.84;95111.00;5034333;28;20229;-66
2022/04/14 05:47:24;;;;;;;17.80;7.13;;;;;;;8.35;78.57;95116.47;5034665;28;20654;-66
2022/04/14 05:49:51;;;;;;;17.63;6.73;;;;;;;8.55;76.68;95152.28;5034207;28;20313;-65
2022/04/14 05:52:17;;;;;;;17.07;6.73;;;;;;;8.65;77.86;95113.53;5034162;28;20241;-65
2022/04/14 05:54:46;;;;;;;11.20;6.00;;;;;;;8.71;77.66;95128.31;5035749;28;20167;-64
2022/04/14 05:57:11;;;;;;;13.23;6.57;;;;;;;8.63;76.72;95150.84;5033530;28;20229;-64
2022/04/14 05:59:37;;;;;;;12.37;6.33;;;;;;;8.87;76.03;95158.47;5034399;28;20206;-67
2022/04/14 06:02:03;;;;;;;11.93;6.17;;;;;;;8.73;76.12;95158.59;5032270;28;20587;-65
2022/04/14 06:04:28;;;;;;;15.87;7.17;;;;;;;8.87;74.90;95153.38;5033769;28;20648;-63
2022/04/14 06:06:53;;;;;;;13.23;5.67;;;;;;;9.15;77.65;95104.91;5032048;28;20214;-62
2022/04/14 06:09:19;;;;;;;16.63;5.30;;;;;;;9.41;71.91;95217.19;5031576;28;20244;-64
2022/04/14 06:11:44;;;;;;;7.37;5.10;;;;;;;9.28;70.96;95212.97;5053317;23;20656;-64
2022/04/14 06:14:10;;;;;;;12.30;4.87;;;;;;;9.01;70.51;95231.84;5033109;28;20178;-66
2022/04/14 06:16:35;;;;;;;10.03;5.10;;;;;;;9.30;69.59;95230.63;5015547;28;20267;-65
2022/04/14 06:19:01;;;;;;;13.07;4.90;;;;;;;9.24;70.49;95233.59;5033416;28;20216;-66
2022/04/14 06:21:26;;;;;;;8.73;5.00;;;;;;;9.48;70.57;95223.44;5052372;22;20355;-63
2022/04/14 06:23:51;;;;;;;8.23;4.87;;;;;;;9.53;67.87;95269.59;5053161;28;20292;-68
2022/04/14 06:26:17;;;;;;;8.87;4.77;;;;;;;9.42;69.36;95223.88;5053251;28;20568;-66
2022/04/14 06:28:45;;;;;;;11.23;5.37;;;;;;;9.36;71.20;95204.00;5053282;28;20205;-63
2022/04/14 06:31:10;;;;;;;10.33;5.93;;;;;;;9.45;73.17;95152.63;5050664;23;20367;-62
2022/04/14 06:33:36;;;;;;;9.10;5.70;;;;;;;9.53;70.83;95201.91;5033228;28;20212;-64
2022/04/14 06:36:01;;;;;;;11.87;5.90;;;;;;;9.61;70.02;95214.03;5031811;28;20285;-64
2022/04/14 06:38:29;;;;;;;14.37;6.27;;;;;;;9.74;71.91;95171.59;5031038;28;20181;-62
2022/04/14 06:40:55;;;;;;;18.53;6.00;;;;;;;9.85;75.18;95103.06;5031366;28;20206;-64
2022/04/14 06:43:21;;;;;;;13.73;7.20;;;;;;;10.09;73.30;95154.56;5031700;28;20182;-63
2022/04/14 06:45:47;;;;;;;14.90;7.00;;;;;;;10.10;74.29;95144.31;5033172;28;20281;-64
2022/04/14 06:48:13;;;;;;;16.60;7.40;;;;;;;10.38;69.06;95238.81;5032984;28;20629;-65
2022/04/14 06:50:40;;;;;;;14.00;6.60;;;;;;;10.43;70.71;95198.63;5033025;28;20202;-63
2022/04/14 06:53:06;;;;;;;8.93;5.93;;;;;;;10.47;72.31;95157.59;5032877;28;20167;-63
2022/04/14 06:55:32;;;;;;;12.27;6.17;;;;;;;10.46;70.16;95211.91;5032818;28;20264;-64
2022/04/14 06:57:58;;;;;;;13.70;6.83;;;;;;;10.56;68.54;95242.53;5031878;28;20228;-64
2022/04/14 07:00:24;;;;;;;12.03;5.43;;;;;;;10.63;68.49;95246.22;5032755;28;20281;-65
2022/04/14 07:02:54;;;;;;;8.80;6.10;;;;;;;10.74;67.15;95274.19;5032424;28;20174;-67
2022/04/14 07:05:22;;;;;;;10.73;5.60;;;;;;;10.83;68.16;95253.16;5032564;28;20644;-64
2022/04/14 07:07:48;;;;;;;10.00;5.37;;;;;;;11.03;69.73;95218.56;5032380;28;20194;-65
2022/04/14 07:10:14;;;;;;;9.10;5.57;;;;;;;11.12;66.31;95295.00;5031145;28;20244;-65
2022/04/14 07:12:41;;;;;;;5.97;4.20;;;;;;;11.14;63.77;95333.03;5032520;28;20174;-65
2022/04/14 07:15:08;;;;;;;11.70;5.73;;;;;;;11.26;63.17;95322.75;5032338;28;20179;-64
2022/04/14 07:17:34;;;;;;;13.67;5.63;;;;;;;11.14;64.96;95274.50;5032342;28;20770;-61
2022/04/14 07:20:04;;;;;;;16.33;7.23;;;;;;;10.89;62.40;95322.19;5032202;28;20258;-66
2022/04/14 07:22:51;;;;;;;10.60;6.07;;;;;;;11.00;63.52;95293.38;5032375;28;20253;-63
2022/04/14 07:25:17;;;;;;;17.77;6.80;;;;;;;11.12;64.24;95274.63;5032233;28;20186;-64
2022/04/14 07:27:43;;;;;;;10.73;6.27;;;;;;;11.27;62.30;95326.09;5047346;28;20230;-64
2022/04/14 07:30:09;;;;;;;11.47;6.43;;;;;;;11.50;62.51;95308.13;5032285;28;20240;-61
2022/04/14 07:32:40;;;;;;;8.77;5.97;;;;;;;11.63;60.41;95341.91;5031907;28;20683;-63
2022/04/14 07:35:07;;;;;;;16.60;6.37;;;;;;;11.57;61.86;95296.50;5031774;28;20190;-63
2022/04/14 07:37:33;;;;;;;19.10;6.30;;;;;;;11.55;62.30;95274.66;5030228;28;20689;-64
2022/04/14 07:39:59;;;;;;;13.20;5.73;;;;;;;11.80;61.06;95299.84;5031872;28;20170;-63
2022/04/14 07:42:50;;;;;;;13.03;6.07;;;;;;;12.00;58.78;95344.13;5032210;28;20269;-63
2022/04/14 07:45:17;;;;;;;9.70;4.80;;;;;;;11.86;56.50;95354.59;5027895;28;20194;-64
2022/04/14 07:47:43;;;;;;;11.07;5.07;;;;;;;11.93;54.89;95376.13;5031874;28;20754;-63
2022/04/14 07:50:15;;;;;;;10.53;4.77;;;;;;;11.89;55.84;95339.88;5031975;28;20624;-65
2022/04/14 07:52:48;;;;;;;9.03;5.00;;;;;;;12.05;55.29;95350.47;5031968;28;20174;-62
2022/04/14 07:55:23;;;;;;;7.23;4.40;;;;;;;12.11;54.53;95362.75;5032042;28;20187;-63
2022/04/14 07:57:50;;;;;;;8.40;5.00;;;;;;;12.14;53.66;95361.69;5031621;28;20632;-62
2022/04/14 08:00:17;;;;;;;7.83;4.20;;;;;;;12.21;52.58;95394.22;5031986;28;20572;-63
2022/04/14 08:02:49;;;;;;;9.60;4.93;;;;;;;12.11;55.04;95324.50;5031834;28;20648;-64
2022/04/14 08:05:16;;;;;;;10.20;5.20;;;;;;;12.27;56.34;95286.66;5031745;28;20244;-65
2022/04/14 08:07:41;;;;;;;13.13;6.37;;;;;;;12.47;55.71;95310.53;5029459;28;20225;-60
2022/04/14 08:10:14;;;;;;;13.03;5.80;;;;;;;12.71;56.11;95297.50;5029665;28;20289;-62
2022/04/14 08:12:40;;;;;;;12.77;5.93;;;;;;;12.68;53.96;95346.22;5033195;28;20194;-62
2022/04/14 08:15:07;;;;;;;8.13;5.60;;;;;;;12.79;54.00;95335.94;5051107;28;20209;-63
2022/04/14 08:17:33;;;;;;;8.17;5.50;;;;;;;12.79;55.27;95320.63;5060042;22;20217;-63
2022/04/14 08:19:58;;;;;;;12.60;5.80;;;;;;;12.78;54.84;95314.75;5055718;28;20674;-63
2022/04/14 08:22:24;;;;;;;10.17;5.80;;;;;;;12.74;54.41;95333.78;5055388;28;20204;-65
2022/04/14 08:24:50;;;;;;;10.27;5.07;;;;;;;12.86;54.80;95307.25;5055362;28;20177;-64
2022/04/14 08:27:17;;;;;;;7.87;5.03;;;;;;;12.94;55.63;95292.13;5055179;28;20210;-65
2022/04/14 08:29:43;;;;;;;7.83;5.07;;;;;;;12.78;53.97;95324.94;5055171;28;20607;-64
2022/04/14 08:32:09;;;;;;;10.73;4.77;;;;;;;12.97;53.34;95337.00;5054934;28;20202;-63
2022/04/14 08:34:36;;;;;;;13.20;5.13;;;;;;;13.18;54.50;95309.69;5055194;28;20169;-63
2022/04/14 08:37:01;;;;;;;8.38;4.70;;;;;;;13.58;55.48;95284.91;5053724;28;20201;-63
2022/04/14 08:39:29;;;;;;;10.40;4.30;;;;;;;13.51;54.80;95304.28;5053872;28;20178;-61
2022/04/14 08:42:05;;;;;;;7.97;4.53;;;;;;;13.49;53.13;95342.69;5055576;28;20239;-63
2022/04/14 08:44:35;;;;;;;8.00;4.30;;;;;;;13.45;52.13;95371.22;5055230;28;20223;-63
2022/04/14 08:47:02;;;;;;;6.20;4.22;;;;;;;13.83;50.95;95396.06;5055523;28;20213;-64
2022/04/14 08:49:30;;;;;;;5.63;3.92;;;;;;;14.11;52.48;95344.97;5055101;28;20528;-63
2022/04/14 08:51:56;;;;;;;10.10;4.45;;;;;;;14.19;51.78;95373.25;5053793;28;20630;-63
2022/04/14 08:54:22;;;;;;;7.60;4.43;;;;;;;14.15;49.34;95423.03;5055038;28;20639;-62
2022/04/14 08:56:51;;;;;;;9.20;4.03;;;;;;;14.18;47.89;95439.88;5070389;28;20595;-65
2022/04/14 08:59:18;;;;;;;9.00;3.95;;;;;;;14.53;47.88;95427.38;5054777;28;20185;-63
2022/04/14 09:01:44;;;;;;;11.27;5.18;;;;;;;14.93;46.48;95456.19;5054677;28;20208;-64
2022/04/14 09:04:11;;;;;;;14.30;4.38;;;;;;;15.11;46.63;95436.63;5053142;28;20189;-60
2022/04/14 09:06:36;;;;;;;4.82;3.60;;;;;;;15.31;47.11;95409.19;5053070;28;20220;-61
2022/04/14 09:09:02;;;;;;;9.35;3.50;;;;;;;15.22;46.40;95424.59;5035602;28;20205;-62
2022/04/14 09:11:30;;;;;;;4.80;3.20;;;;;;;15.22;45.76;95414.34;5051308;28;20760;-65
2022/04/14 09:13:59;;;;;;;7.80;4.10;;;;;;;15.51;45.38;95430.50;5054524;28;20217;-65
2022/04/14 09:16:26;;;;;;;4.72;3.88;;;;;;;15.80;43.72;95462.75;5054833;28;20233;-64
2022/04/14 09:18:53;;;;;;;8.60;3.63;;;;;;;16.08;45.80;95373.75;5054614;28;20173;-64
2022/04/14 09:21:19;;;;;;;8.65;3.80;;;;;;;16.42;44.84;95394.47;5054751;28;20291;-63
2022/04/14 09:23:53;;;;;;;9.13;4.22;;;;;;;16.72;43.01;95435.97;5053971;28;20211;-64
2022/04/14 09:26:23;;;;;;;9.15;4.20;;;;;;;16.97;42.61;95426.72;5054663;28;20198;-64
2022/04/14 09:29:10;;;;;;;7.78;3.85;;;;;;;16.56;41.05;95440.97;5054160;28;20202;-62
2022/04/14 09:31:49;;;;;;;5.72;3.38;;;;;;;17.00;41.45;95418.72;5054494;28;20209;-63
2022/04/14 09:34:17;;;;;;;5.35;3.00;;;;;;;17.46;41.73;95390.06;5052478;28;20208;-65
2022/04/14 09:37:06;;;;;;;6.85;3.53;;;;;;;17.90;40.95;95377.88;5054264;28;20193;-65
2022/04/14 09:39:53;;;;;;;5.15;2.90;;;;;;;18.07;39.03;95407.88;5052604;28;20203;-64
2022/04/14 09:42:21;;;;;;;6.20;2.78;;;;;;;18.25;36.85;95398.25;5053756;28;20201;-63
2022/04/14 09:44:46;;;;;;;5.93;2.33;;;;;;;18.36;35.44;95394.59;5053892;28;20185;-64
2022/04/14 09:47:21;;;;;;;5.57;2.58;;;;;;;18.71;36.42;95342.78;5069939;28;20300;-62
2022/04/14 09:49:47;;;;;;;3.33;2.30;;;;;;;18.32;35.52;95350.31;5053889;28;20177;-64
2022/04/14 09:52:13;;;;;;;4.68;2.67;;;;;;;18.62;35.79;95332.66;5053736;28;20213;-62
2022/04/14 09:54:39;;;;;;;4.82;2.55;;;;;;;18.82;35.24;95345.03;5053674;28;20208;-62
2022/04/14 09:57:10;;;;;;;2.72;2.20;;;;;;;19.15;35.51;95319.97;5069078;28;20291;-62
2022/04/14 09:59:37;;;;;;;3.45;2.30;;;;;;;19.39;34.82;95322.53;5054011;28;20174;-64
2022/04/14 10:02:16;;;;;;;3.97;2.55;;;;;;;19.50;34.00;95337.63;5068991;28;20245;-62
2022/04/14 10:04:48;;;;;;;5.35;1.75;;;;;;;19.63;32.95;95344.84;5052124;28;20209;-64
2022/04/14 10:07:17;;;;;;;4.13;1.92;;;;;;;19.98;31.44;95367.56;5054053;28;20252;-64
2022/04/14 10:09:48;;;;;;;2.17;1.60;;;;;;;19.45;31.47;95342.50;5051801;28;20178;-62
2022/04/14 10:12:19;;;;;;;2.80;1.80;;;;;;;19.26;31.01;95345.41;5053574;28;20259;-63
2022/04/14 10:15:07;;;;;;;5.28;2.60;;;;;;;19.45;29.51;95370.88;5068456;28;20268;-62
2022/04/14 10:17:37;;;;;;;4.05;2.60;;;;;;;19.79;31.39;95293.16;5052067;28;20197;-65
2022/04/14 10:20:05;;;;;;;4.07;2.00;;;;;;;20.06;31.04;95311.53;5052230;28;20251;-63
2022/04/14 10:22:31;;;;;;;3.45;1.90;;;;;;;19.70;31.49;95276.91;5040720;23;20226;-63
2022/04/14 10:24:57;;;;;;;2.45;2.05;;;;;;;19.82;29.61;95332.31;5033389;28;20174;-61
2022/04/14 10:27:25;;;;;;;2.50;1.92;;;;;;;20.08;29.98;95313.94;5032765;28;20293;-63
2022/04/14 10:29:50;;;;;;;2.53;1.73;;;;;;;20.45;28.29;95352.78;5032783;28;20227;-64
2022/04/14 10:32:16;;;;;;;2.92;2.10;;;;;;;20.48;28.43;95341.28;5033218;28;20271;-62
2022/04/14 10:34:44;;;;;;;2.85;2.20;;;;;;;20.67;29.77;95294.28;5032234;28;20658;-63
2022/04/14 10:37:16;;;;;;;4.65;2.50;;;;;;;20.69;29.44;95293.13;5032990;28;20217;-64
2022/04/14 10:39:46;;;;;;;5.18;2.58;;;;;;;20.72;29.09;95302.34;5031856;28;20170;-62
2022/04/14 10:42:16;;;;;;;5.07;2.28;;;;;;;21.01;29.35;95284.25;5034205;28;20198;-63
2022/04/14 10:44:47;;;;;;;4.90;2.28;;;;;;;21.16;28.72;95298.03;5033129;28;20689;-62
2022/04/14 10:47:33;;;;;;;3.75;2.10;;;;;;;20.64;28.53;95297.22;5032757;28;20290;-63
2022/04/14 10:49:58;;;;;;;5.75;2.80;;;;;;;20.68;29.42;95283.78;5031985;28;20190;-64
2022/04/14 10:52:25;;;;;;;5.07;2.50;;;;;;;20.89;29.07;95272.75;5032956;28;20655;-64
2022/04/14 10:55:09;;;;;;;2.30;2.05;;;;;;;21.34;29.20;95270.00;5040446;23;20230;-61
2022/04/14 10:57:42;;;;;;;4.28;2.13;;;;;;;21.57;28.43;95285.41;5013105;28;20163;-64
2022/04/14 11:00:30;;;;;;;3.38;1.90;;;;;;;21.02;28.62;95278.16;5013123;28;20687;-62
2022/04/14 11:03:13;;;;;;;4.18;2.17;;;;;;;21.15;27.83;95293.81;5009357;28;20191;-64
2022/04/14 11:05:42;;;;;;;3.25;2.00;;;;;;;21.35;28.05;95281.94;5013004;28;20670;-62
2022/04/14 11:08:27;;;;;;;4.18;2.13;;;;;;;21.70;28.49;95267.44;5012603;28;20214;-62
2022/04/14 11:11:09;;;;;;;4.57;2.17;;;;;;;21.38;28.76;95250.56;5013074;28;20289;-65
2022/04/14 11:13:53;;;;;;;6.35;2.15;;;;;;;21.38;29.53;95227.28;5012990;28;20644;-63
2022/04/14 11:16:49;;;;;;;4.78;2.17;;;;;;;21.89;28.53;95263.47;5012398;28;20293;-62
2022/04/14 11:19:14;;;;;;;7.13;4.50;;;;;;;22.46;29.42;95231.31;5012918;28;20187;-65
2022/04/14 11:22:01;;;;;;;8.25;4.85;;;;;;;22.90;28.39;95248.41;4994746;28;20253;-63
2022/04/14 11:24:53;;;;;;;6.03;4.65;;;;;;;22.85;27.44;95277.47;5012515;28;20191;-63
2022/04/14 11:27:21;;;;;;;8.85;3.40;;;;;;;22.47;26.80;95286.53;4992731;28;20222;-62
2022/04/14 11:29:53;;;;;;;7.35;2.60;;;;;;;22.59;27.17;95273.91;5013774;28;20240;-61
2022/04/14 11:32:39;;;;;;;3.67;2.65;;;;;;;22.03;27.10;95268.63;5012651;28;20194;-64
2022/04/14 11:35:09;;;;;;;5.18;2.63;;;;;;;21.68;27.43;95254.69;5034903;23;20222;-64
2022/04/14 11:37:48;;;;;;;3.10;2.25;;;;;;;20.93;28.74;95217.13;5032243;28;20743;-64
2022/04/14 11:40:25;;;;;;;3.80;2.33;;;;;;;21.68;26.78;95274.59;5032115;28;20257;-64